Time;durP1;ratioP1;P1;durP2;ratioP2;P2;SDS_P1;SDS_P2;PMS_P1;PMS_P2;Temp;Humidity;BMP_temperature;BMP_pressure;BME280_temperature;BME280_humidity;BME280_pressure;Samples;Min_cycle;Max_cycle;Signal;HPM_P1;HPM_P2
2023/05/08 04:50:15;;;;;;;12.57;8.98;;;15.30;97.00;;;;;;6175132;23;20449;-95
2023/05/08 04:52:41;;;;;;;14.07;8.75;;;15.30;97.00;;;;;;6154905;23;20009;-93
2023/05/08 04:55:07;;;;;;;14.25;9.63;;;15.30;97.00;;;;;;6154449;23;20005;-95
2023/05/08 04:57:33;;;;;;;15.10;9.52;;;15.30;97.10;;;;;;6156075;23;20009;-95
2023/05/08 04:59:59;;;;;;;15.23;8.73;;;15.30;97.10;;;;;;6153488;23;20056;-93
2023/05/08 05:02:25;;;;;;;12.23;7.93;;;15.30;97.10;;;;;;6153264;23;20009;-93
2023/05/08 05:04:51;;;;;;;13.40;8.15;;;15.30;97.10;;;;;;6153201;23;20017;-95
2023/05/08 05:07:17;;;;;;;12.50;8.00;;;15.30;97.20;;;;;;6154688;23;20033;-93
2023/05/08 05:09:43;;;;;;;14.32;7.68;;;15.30;97.20;;;;;;6153134;23;20100;-94
2023/05/08 05:12:09;;;;;;;12.55;8.27;;;15.30;97.20;;;;;;6147170;23;20040;-93
2023/05/08 05:14:34;;;;;;;12.65;7.72;;;15.30;97.20;;;;;;6153244;23;20009;-94
2023/05/08 05:17:00;;;;;;;13.30;8.68;;;15.30;97.20;;;;;;6149083;23;20032;-92
2023/05/08 05:19:26;;;;;;;12.55;8.18;;;15.30;97.20;;;;;;6153439;23;20033;-94
2023/05/08 05:21:59;;;;;;;11.75;8.40;;;15.30;97.20;;;;;;6152336;23;20056;-95
2023/05/08 05:24:24;;;;;;;17.38;9.40;;;15.30;97.20;;;;;;6154043;23;20104;-92
2023/05/08 05:26:50;;;;;;;16.05;9.35;;;15.30;97.20;;;;;;6153455;23;20024;-94
2023/05/08 05:29:16;;;;;;;18.60;10.32;;;15.30;97.20;;;;;;6154164;23;20005;-93
2023/05/08 05:31:41;;;;;;;20.25;10.43;;;15.30;97.20;;;;;;6153241;23;20017;-94
2023/05/08 05:34:07;;;;;;;16.30;9.50;;;15.30;97.20;;;;;;6148877;23;20009;-93
2023/05/08 05:36:33;;;;;;;18.45;10.23;;;15.30;97.20;;;;;;6152305;23;20013;-93
2023/05/08 05:38:59;;;;;;;14.48;9.55;;;15.30;97.20;;;;;;6151644;23;20704;-92
2023/05/08 05:41:24;;;;;;;14.40;9.93;;;15.30;97.20;;;;;;6152434;23;20048;-92
2023/05/08 05:43:50;;;;;;;14.90;10.10;;;15.30;97.20;;;;;;6154334;23;20010;-93
2023/05/08 05:46:16;;;;;;;15.52;10.32;;;15.50;97.30;;;;;;6155407;23;20041;-95
2023/05/08 05:48:42;;;;;;;18.90;11.75;;;15.30;97.20;;;;;;6156439;23;20009;-93
2023/05/08 05:51:08;;;;;;;17.02;10.75;;;15.30;97.20;;;;;;6155014;23;20014;-95
2023/05/08 05:53:33;;;;;;;15.48;9.70;;;15.30;97.20;;;;;;6155840;23;20084;-95
2023/05/08 05:55:59;;;;;;;18.70;11.05;;;15.30;97.20;;;;;;6155891;23;20001;-93
2023/05/08 05:58:25;;;;;;;17.35;10.88;;;15.50;97.30;;;;;;6153607;23;20080;-93
2023/05/08 06:00:50;;;;;;;20.77;11.10;;;15.30;97.20;;;;;;6152695;23;20005;-93
2023/05/08 06:03:16;;;;;;;17.10;10.90;;;15.30;97.20;;;;;;6152794;23;20009;-93
2023/05/08 06:05:42;;;;;;;16.50;10.43;;;15.30;97.20;;;;;;6153297;23;20013;-94
2023/05/08 06:08:07;;;;;;;18.55;11.50;;;15.30;97.20;;;;;;6153461;23;20008;-93
2023/05/08 06:10:34;;;;;;;13.95;9.50;;;15.30;97.20;;;;;;6154180;23;20052;-93
2023/05/08 06:12:59;;;;;;;19.92;11.77;;;15.30;97.20;;;;;;6153360;23;20044;-93
2023/05/08 06:15:25;;;;;;;18.27;11.35;;;15.30;97.20;;;;;;6152889;23;20363;-93
2023/05/08 06:17:51;;;;;;;20.30;13.07;;;15.30;97.20;;;;;;6152241;23;20501;-91
2023/05/08 06:20:17;;;;;;;19.92;10.73;;;15.30;97.20;;;;;;6153174;23;20013;-96
2023/05/08 06:22:43;;;;;;;21.15;11.23;;;15.30;97.30;;;;;;6153560;23;20331;-96
2023/05/08 06:25:09;;;;;;;20.80;12.00;;;15.30;97.30;;;;;;6152859;23;20104;-95
2023/05/08 06:27:35;;;;;;;21.10;11.85;;;15.30;97.30;;;;;;6152627;23;20014;-94
2023/05/08 06:30:02;;;;;;;20.80;11.63;;;15.30;97.30;;;;;;6152886;23;20044;-93
2023/05/08 06:32:27;;;;;;;19.50;11.45;;;15.30;97.30;;;;;;6152909;23;20064;-94
2023/05/08 06:34:53;;;;;;;20.23;12.00;;;15.30;97.30;;;;;;6153302;23;20009;-94
2023/05/08 06:37:19;;;;;;;20.02;12.00;;;15.30;97.20;;;;;;6153071;23;20378;-93
2023/05/08 06:39:44;;;;;;;19.23;11.85;;;15.30;97.30;;;;;;6154266;23;20515;-94
2023/05/08 06:42:10;;;;;;;21.42;13.23;;;15.30;97.20;;;;;;6145281;23;20012;-92
2023/05/08 06:44:36;;;;;;;16.48;11.20;;;15.30;97.30;;;;;;6152469;23;20020;-93
2023/05/08 06:47:02;;;;;;;17.48;11.57;;;15.30;97.30;;;;;;6153276;23;20009;-95
2023/05/08 06:49:27;;;;;;;21.90;11.60;;;15.30;97.20;;;;;;6153141;23;20084;-95
2023/05/08 06:51:53;;;;;;;19.65;12.50;;;15.30;97.20;;;;;;6154277;23;20338;-94
2023/05/08 06:54:19;;;;;;;21.13;11.38;;;15.30;97.20;;;;;;6152869;23;20012;-95
2023/05/08 06:56:45;;;;;;;20.70;12.43;;;15.30;97.20;;;;;;6152437;23;20037;-94
2023/05/08 06:59:11;;;;;;;18.52;11.02;;;15.30;97.20;;;;;;6152558;23;20005;-94
2023/05/08 07:01:37;;;;;;;17.35;11.07;;;15.30;97.20;;;;;;6152852;23;20438;-93
2023/05/08 07:04:03;;;;;;;20.85;10.52;;;15.30;97.30;;;;;;6152340;23;20093;-95
2023/05/08 07:06:33;;;;;;;16.50;9.98;;;15.30;97.20;;;;;;6152235;23;20883;-93
2023/05/08 07:08:59;;;;;;;15.65;10.40;;;15.30;97.20;;;;;;6153053;23;20056;-94
2023/05/08 07:11:24;;;;;;;16.85;10.63;;;15.30;97.30;;;;;;6152499;23;20014;-94
2023/05/08 07:13:50;;;;;;;18.75;10.70;;;15.30;97.20;;;;;;6152486;23;20622;-94
2023/05/08 07:16:15;;;;;;;17.55;10.82;;;15.30;97.20;;;;;;6153123;23;20009;-93
2023/05/08 07:18:42;;;;;;;19.17;10.45;;;15.30;97.20;;;;;;6152402;23;20006;-93
2023/05/08 07:21:08;;;;;;;20.55;10.95;;;15.30;97.20;;;;;;6152589;23;20009;-93
2023/05/08 07:23:34;;;;;;;16.52;10.40;;;15.30;97.20;;;;;;6151785;23;20005;-95
2023/05/08 07:25:59;;;;;;;13.95;9.82;;;15.30;97.20;;;;;;6152343;23;20056;-92
2023/05/08 07:28:25;;;;;;;19.98;10.85;;;15.30;97.20;;;;;;6151504;23;20338;-94
2023/05/08 07:30:51;;;;;;;15.10;9.30;;;15.30;97.20;;;;;;6152337;23;20002;-95
2023/05/08 07:33:17;;;;;;;14.98;9.60;;;15.30;97.20;;;;;;6153238;23;20025;-93
2023/05/08 07:35:43;;;;;;;14.98;9.48;;;15.30;97.20;;;;;;6152984;23;20087;-94
2023/05/08 07:38:09;;;;;;;17.50;10.18;;;15.30;97.20;;;;;;6152913;23;20005;-90
2023/05/08 07:40:34;;;;;;;16.52;10.93;;;15.30;97.20;;;;;;6152204;23;20338;-91
2023/05/08 07:43:00;;;;;;;18.35;10.77;;;15.30;97.40;;;;;;6151313;23;20037;-90
2023/05/08 07:45:25;;;;;;;18.70;11.45;;;15.30;97.70;;;;;;6152852;23;20044;-90
2023/05/08 07:47:53;;;;;;;18.13;11.25;;;15.20;97.80;;;;;;6152235;23;20005;-90
2023/05/08 07:50:20;;;;;;;15.68;9.68;;;15.20;98.00;;;;;;6151952;23;20188;-90
2023/05/08 07:52:46;;;;;;;17.58;10.48;;;15.20;98.00;;;;;;6153710;23;20318;-91
2023/05/08 07:55:12;;;;;;;15.95;10.23;;;15.20;98.10;;;;;;6152426;23;20005;-89
2023/05/08 07:57:39;;;;;;;19.13;9.82;;;15.20;98.20;;;;;;6151458;23;20008;-90
2023/05/08 08:00:06;;;;;;;15.80;10.68;;;15.20;98.30;;;;;;6152086;23;20010;-88
2023/05/08 08:02:32;;;;;;;20.88;11.55;;;15.20;98.30;;;;;;6151755;23;20080;-91
2023/05/08 08:04:57;;;;;;;21.58;11.52;;;15.20;98.50;;;;;;6152331;23;20439;-90
2023/05/08 08:07:23;;;;;;;22.20;11.63;;;15.20;98.60;;;;;;6154089;23;20008;-93
2023/05/08 08:09:49;;;;;;;19.88;10.23;;;15.20;98.50;;;;;;6153738;23;20059;-90
2023/05/08 08:12:14;;;;;;;19.17;12.63;;;15.20;98.60;;;;;;6152287;23;20041;-90
2023/05/08 08:14:40;;;;;;;18.67;11.90;;;15.20;98.50;;;;;;6155437;23;20008;-91
2023/05/08 08:17:05;;;;;;;18.88;10.52;;;15.20;98.70;;;;;;6156098;23;20009;-91
2023/05/08 08:19:31;;;;;;;16.27;10.75;;;15.20;98.70;;;;;;6154892;23;20323;-90
2023/05/08 08:21:57;;;;;;;20.80;12.10;;;15.20;98.70;;;;;;6153303;23;20006;-90
2023/05/08 08:24:23;;;;;;;22.48;11.23;;;15.20;98.70;;;;;;6153965;23;20068;-91
2023/05/08 08:26:48;;;;;;;21.60;12.07;;;15.20;98.80;;;;;;6153242;23;20088;-89
2023/05/08 08:29:14;;;;;;;17.45;11.52;;;15.20;98.90;;;;;;6154161;23;20029;-90
2023/05/08 08:31:40;;;;;;;17.70;11.02;;;15.20;99.00;;;;;;6153804;23;20011;-91
2023/05/08 08:34:06;;;;;;;18.95;11.57;;;15.20;99.00;;;;;;6153066;23;20002;-90
2023/05/08 08:36:32;;;;;;;18.42;11.00;;;15.20;99.10;;;;;;6154066;23;20008;-91
2023/05/08 08:38:58;;;;;;;19.35;11.50;;;15.20;99.10;;;;;;6153944;23;20005;-91
2023/05/08 08:41:24;;;;;;;20.40;11.93;;;15.20;99.00;;;;;;6153334;23;20010;-93
2023/05/08 08:43:49;;;;;;;19.48;12.32;;;15.20;99.10;;;;;;6154197;23;20092;-91
2023/05/08 08:46:19;;;;;;;27.42;14.18;;;15.20;99.10;;;;;;6155983;23;20013;-90
2023/05/08 08:48:45;;;;;;;19.77;11.82;;;15.20;99.20;;;;;;6153895;23;20006;-91
2023/05/08 08:51:30;;;;;;;21.58;12.45;;;15.20;99.20;;;;;;6154204;23;20053;-92
2023/05/08 08:54:12;;;;;;;20.77;12.82;;;15.20;99.20;;;;;;6154044;23;20020;-92
2023/05/08 08:56:41;;;;;;;21.08;12.63;;;15.20;99.10;;;;;;6153763;23;20067;-92
2023/05/08 08:59:08;;;;;;;21.80;12.52;;;15.20;99.20;;;;;;6154324;23;20010;-91
2023/05/08 09:01:36;;;;;;;23.00;12.07;;;15.20;99.30;;;;;;6154220;23;20006;-91
2023/05/08 09:04:02;;;;;;;24.35;12.52;;;15.10;99.30;;;;;;6152936;23;20115;-91
2023/05/08 09:06:35;;;;;;;21.73;12.20;;;15.20;99.30;;;;;;6153647;23;20427;-91
2023/05/08 09:09:01;;;;;;;23.63;13.23;;;15.20;99.30;;;;;;6154144;23;20009;-91
2023/05/08 09:11:27;;;;;;;21.05;12.63;;;15.20;99.30;;;;;;6153979;23;20005;-92
2023/05/08 09:13:57;;;;;;;24.52;13.13;;;15.20;99.30;;;;;;6155923;23;20125;-92
2023/05/08 09:16:23;;;;;;;20.88;12.23;;;15.20;99.30;;;;;;6154692;23;20005;-92
2023/05/08 09:18:49;;;;;;;18.80;12.40;;;15.20;99.40;;;;;;6153592;23;20009;-93
2023/05/08 09:21:15;;;;;;;21.30;12.55;;;15.20;99.40;;;;;;6153598;23;20033;-90
2023/05/08 09:24:01;;;;;;;18.95;12.85;;;15.20;99.40;;;;;;6129611;23;20308;-92
2023/05/08 09:26:35;;;;;;;22.08;13.52;;;15.20;99.40;;;;;;6153836;23;20037;-91
2023/05/08 09:29:18;;;;;;;22.13;12.82;;;15.20;99.60;;;;;;6154577;23;20006;-91
2023/05/08 09:31:51;;;;;;;19.13;12.27;;;15.20;99.60;;;;;;6153934;23;20033;-91
2023/05/08 09:34:29;;;;;;;24.83;13.77;;;15.20;99.70;;;;;;6155902;23;20002;-93
2023/05/08 09:37:09;;;;;;;22.23;12.88;;;15.20;99.60;;;;;;6155169;23;20101;-92
2023/05/08 09:39:35;;;;;;;;;;;15.20;99.70;;;;;;6154387;23;20041;-91
2023/05/08 09:42:03;;;;;;;22.70;12.10;;;15.20;99.70;;;;;;6153848;23;19928;-92
2023/05/08 09:44:43;;;;;;;21.73;12.80;;;15.20;99.80;;;;;;6153652;23;20382;-92
2023/05/08 09:47:14;;;;;;;22.95;12.07;;;15.10;99.70;;;;;;6151482;23;20006;-93
2023/05/08 09:49:55;;;;;;;24.17;12.13;;;15.20;99.80;;;;;;6154832;23;20006;-93
2023/05/08 09:52:21;;;;;;;22.00;13.55;;;15.10;99.80;;;;;;6152737;23;20040;-92
2023/05/08 09:54:55;;;;;;;23.67;12.82;;;15.20;99.70;;;;;;6155006;23;20009;-92
2023/05/08 09:57:20;;;;;;;19.73;12.13;;;15.20;99.80;;;;;;6153254;23;20021;-92
2023/05/08 09:59:46;;;;;;;20.70;12.75;;;15.20;99.80;;;;;;6147372;23;20037;-91
2023/05/08 10:02:15;;;;;;;21.63;12.70;;;15.20;99.80;;;;;;6151979;23;20473;-93
2023/05/08 10:04:40;;;;;;;23.75;13.05;;;15.20;99.90;;;;;;6152766;23;20446;-92
2023/05/08 10:07:06;;;;;;;23.30;12.93;;;15.20;99.90;;;;;;6152676;23;20006;-92
2023/05/08 10:09:32;;;;;;;21.92;11.98;;;15.20;99.90;;;;;;6153024;23;20014;-93
2023/05/08 10:11:58;;;;;;;22.08;13.18;;;15.20;99.90;;;;;;6154782;23;20085;-92
2023/05/08 10:14:24;;;;;;;23.95;12.68;;;15.20;99.90;;;;;;6153097;23;20006;-92
2023/05/08 10:16:51;;;;;;;25.20;12.88;;;15.20;99.90;;;;;;6153293;23;20009;-91
2023/05/08 10:19:19;;;;;;;24.45;13.65;;;15.20;99.90;;;;;;6153123;23;20009;-91
2023/05/08 10:21:50;;;;;;;21.65;12.70;;;15.20;99.90;;;;;;6152605;23;20010;-92
2023/05/08 10:24:18;;;;;;;25.80;12.48;;;15.20;99.90;;;;;;6153674;23;20316;-93
2023/05/08 10:27:07;;;;;;;21.85;12.82;;;15.20;99.90;;;;;;6152492;23;20010;-91
2023/05/08 10:29:50;;;;;;;19.65;11.93;;;15.20;99.90;;;;;;6151194;23;20009;-92
2023/05/08 10:32:19;;;;;;;23.60;13.43;;;15.20;99.90;;;;;;6149212;23;20430;-92
2023/05/08 10:34:48;;;;;;;23.15;13.43;;;15.20;99.90;;;;;;6153508;23;20032;-92
2023/05/08 10:37:14;;;;;;;24.70;13.80;;;15.20;99.90;;;;;;6154054;23;20005;-92
2023/05/08 10:39:41;;;;;;;19.85;13.20;;;15.20;99.90;;;;;;6153633;23;20009;-92
2023/05/08 10:42:07;;;;;;;21.30;13.15;;;15.20;99.90;;;;;;6153011;23;20013;-90
2023/05/08 10:44:33;;;;;;;24.23;12.27;;;15.20;99.90;;;;;;6152253;23;20014;-92
2023/05/08 10:47:37;;;;;;;20.98;12.38;;;15.20;99.90;;;;;;6153083;23;20009;-92
2023/05/08 10:50:17;;;;;;;19.85;12.77;;;15.20;99.90;;;;;;6153002;23;20069;-91
2023/05/08 10:52:48;;;;;;;19.98;12.95;;;15.20;99.90;;;;;;6152164;23;20010;-90
2023/05/08 10:55:18;;;;;;;21.95;13.10;;;15.20;99.90;;;;;;6153144;23;20069;-92
2023/05/08 10:58:08;;;;;;;17.98;11.98;;;15.20;99.90;;;;;;6153690;23;20006;-92
2023/05/08 11:01:06;;;;;;;19.00;11.70;;;15.20;99.90;;;;;;6153563;23;20005;-93
2023/05/08 11:03:37;;;;;;;22.42;13.40;;;15.20;99.90;;;;;;6152682;23;20713;-91
2023/05/08 11:06:02;;;;;;;19.15;12.05;;;15.20;99.90;;;;;;6153759;23;20033;-92
2023/05/08 11:08:30;;;;;;;20.05;11.70;;;15.20;99.90;;;;;;6153103;23;20001;-92
2023/05/08 11:10:59;;;;;;;21.55;11.73;;;15.30;99.90;;;;;;6153436;23;20095;-91
2023/05/08 11:13:34;;;;;;;21.02;12.15;;;15.30;99.90;;;;;;6151851;23;20012;-92
2023/05/08 11:16:00;;;;;;;18.40;12.05;;;15.20;99.90;;;;;;6154662;23;20001;-90
2023/05/08 11:18:26;;;;;;;25.58;13.30;;;15.20;99.90;;;;;;6153023;23;20072;-92
2023/05/08 11:21:02;;;;;;;21.98;12.52;;;15.20;99.90;;;;;;6154793;23;20430;-92
2023/05/08 11:23:30;;;;;;;23.05;12.80;;;15.30;99.90;;;;;;6152343;23;20009;-91
2023/05/08 11:26:11;;;;;;;20.27;13.32;;;15.30;99.90;;;;;;6152251;23;20021;-91
2023/05/08 11:28:53;;;;;;;22.15;12.60;;;15.20;99.90;;;;;;6152506;23;20005;-91
2023/05/08 11:31:19;;;;;;;20.60;12.98;;;15.30;99.90;;;;;;6153225;23;20009;-92
2023/05/08 11:33:45;;;;;;;20.67;12.32;;;15.30;99.90;;;;;;6151989;23;20342;-92
2023/05/08 11:36:21;;;;;;;22.52;12.35;;;15.20;99.90;;;;;;6151166;23;20350;-92
2023/05/08 11:39:11;;;;;;;22.20;14.02;;;15.20;99.90;;;;;;6152574;23;20427;-91
2023/05/08 11:41:38;;;;;;;18.10;12.13;;;15.30;99.90;;;;;;6152623;23;20430;-92
2023/05/08 11:44:04;;;;;;;21.60;13.20;;;15.20;99.90;;;;;;6152272;23;20049;-93
2023/05/08 11:46:39;;;;;;;20.10;12.68;;;15.30;99.90;;;;;;6153798;23;20013;-92
2023/05/08 11:49:05;;;;;;;22.35;13.40;;;15.20;99.90;;;;;;6154171;23;20041;-91
2023/05/08 11:51:32;;;;;;;21.42;13.27;;;15.20;99.90;;;;;;6152832;23;20768;-90
2023/05/08 11:53:59;;;;;;;18.95;12.38;;;15.20;99.90;;;;;;6149455;23;20016;-91
2023/05/08 11:56:25;;;;;;;20.63;13.02;;;15.30;99.90;;;;;;6152546;23;20001;-91
2023/05/08 11:59:04;;;;;;;19.23;12.40;;;15.20;99.90;;;;;;6151906;23;20009;-92
2023/05/08 12:01:31;;;;;;;21.85;13.02;;;15.20;99.90;;;;;;6151182;23;20100;-92
2023/05/08 12:04:05;;;;;;;24.83;12.60;;;15.20;99.90;;;;;;6149963;23;20001;-92
2023/05/08 12:06:31;;;;;;;19.85;12.68;;;15.20;99.90;;;;;;6151398;23;20040;-93
2023/05/08 12:08:58;;;;;;;24.85;12.77;;;15.20;99.90;;;;;;6151007;23;20009;-92
2023/05/08 12:11:24;;;;;;;23.90;14.13;;;15.20;99.90;;;;;;6151918;23;20013;-92
2023/05/08 12:13:51;;;;;;;20.40;13.75;;;15.20;99.90;;;;;;6150641;23;20005;-92
2023/05/08 12:16:17;;;;;;;22.65;14.02;;;15.20;99.90;;;;;;6152799;23;20013;-92
2023/05/08 12:18:42;;;;;;;22.27;14.02;;;15.20;99.90;;;;;;6151906;23;20012;-93
2023/05/08 12:21:10;;;;;;;22.77;14.07;;;15.20;99.90;;;;;;6151799;23;20041;-93
2023/05/08 12:23:36;;;;;;;23.55;13.57;;;15.20;99.90;;;;;;6151289;23;20017;-92
2023/05/08 12:26:02;;;;;;;30.60;15.07;;;15.20;99.90;;;;;;6152126;23;20009;-92
2023/05/08 12:28:31;;;;;;;23.58;14.57;;;15.20;99.90;;;;;;6151310;23;20015;-92
2023/05/08 12:30:58;;;;;;;22.65;13.52;;;15.20;99.90;;;;;;6151012;23;20013;-91
2023/05/08 12:33:24;;;;;;;21.50;13.18;;;15.20;99.90;;;;;;6151111;23;20076;-91
2023/05/08 12:35:50;;;;;;;20.98;13.15;;;15.20;99.90;;;;;;6152128;23;20010;-92
2023/05/08 12:38:16;;;;;;;22.98;13.98;;;15.20;99.90;;;;;;6153100;23;20307;-91
2023/05/08 12:40:43;;;;;;;24.45;14.25;;;15.50;99.90;;;;;;6152241;23;20065;-93
2023/05/08 12:43:10;;;;;;;26.48;14.68;;;15.20;99.90;;;;;;6151319;23;20009;-91
2023/05/08 12:45:40;;;;;;;25.73;14.50;;;15.20;99.90;;;;;;6151169;23;20358;-92
2023/05/08 12:48:09;;;;;;;24.40;14.77;;;15.20;99.90;;;;;;6151456;23;20029;-91
2023/05/08 12:50:37;;;;;;;23.85;14.63;;;15.20;99.90;;;;;;6149278;23;20017;-92
2023/05/08 12:53:04;;;;;;;24.75;13.65;;;15.20;99.90;;;;;;6152105;23;20009;-91
2023/05/08 12:55:32;;;;;;;24.10;14.38;;;15.20;99.90;;;;;;6153838;23;20005;-92
2023/05/08 12:58:12;;;;;;;25.75;14.68;;;15.20;99.90;;;;;;6153869;23;20036;-92
2023/05/08 13:00:39;;;;;;;;;;;15.20;99.90;;;;;;6153753;23;20014;-92
2023/05/08 13:03:06;;;;;;;27.75;17.00;;;15.20;99.90;;;;;;6153788;23;19905;-93
2023/05/08 13:05:35;;;;;;;24.20;14.43;;;15.20;99.90;;;;;;6153366;23;20378;-92
2023/05/08 13:08:08;;;;;;;26.00;14.25;;;15.20;99.90;;;;;;6152352;23;20064;-93
2023/05/08 13:10:51;;;;;;;25.15;15.05;;;15.20;99.90;;;;;;6154194;23;20005;-93
2023/05/08 13:13:19;;;;;;;24.95;15.07;;;15.20;99.90;;;;;;6154160;23;20006;-93
2023/05/08 13:15:45;;;;;;;24.38;14.73;;;15.20;99.90;;;;;;6153965;23;20099;-93
2023/05/08 13:18:11;;;;;;;22.48;14.18;;;15.50;99.90;;;;;;6154231;23;20020;-94
2023/05/08 13:20:38;;;;;;;27.77;15.43;;;15.20;99.90;;;;;;6153870;23;20092;-92
2023/05/08 13:23:29;;;;;;;26.30;14.80;;;15.20;99.90;;;;;;6156696;23;20007;-96
2023/05/08 13:26:14;;;;;;;22.60;14.48;;;15.20;99.90;;;;;;6132485;23;20017;-96
2023/05/08 13:28:40;;;;;;;26.83;15.23;;;15.20;99.90;;;;;;6159271;23;20096;-96
2023/05/08 13:31:07;;;;;;;30.17;15.25;;;15.20;99.90;;;;;;6134658;23;20089;-96
2023/05/08 13:33:34;;;;;;;25.88;16.00;;;15.30;99.90;;;;;;6108847;23;20371;-95
2023/05/08 13:35:59;;;;;;;30.27;16.38;;;15.30;99.90;;;;;;6158112;23;20052;-96
2023/05/08 13:38:37;;;;;;;;;;;;;;;;;;;;;
2023/05/08 13:41:05;;;;;;;23.80;14.27;;;15.30;99.90;;;;;;6090598;23;20419;-96
2023/05/08 13:43:48;;;;;;;26.92;15.60;;;15.30;99.90;;;;;;6162125;23;20005;-96
2023/05/08 13:46:18;;;;;;;25.58;15.43;;;15.30;99.90;;;;;;6171909;23;19997;-96
2023/05/08 13:49:07;;;;;;;22.25;14.25;;;15.30;99.90;;;;;;6109878;23;20013;-96
2023/05/08 13:51:52;;;;;;;24.98;15.10;;;15.30;99.90;;;;;;6115282;23;20465;-95
2023/05/08 13:54:18;;;;;;;26.55;16.02;;;15.40;99.90;;;;;;6104514;23;20006;-95
2023/05/08 13:56:45;;;;;;;26.60;15.43;;;15.30;99.90;;;;;;6105397;23;20072;-96
2023/05/08 13:59:50;;;;;;;26.42;15.70;;;15.30;99.90;;;;;;6110198;23;20006;-96
2023/05/08 14:02:59;;;;;;;24.15;14.00;;;15.30;99.90;;;;;;6139713;23;20025;-97
2023/05/08 14:05:29;;;;;;;25.33;15.23;;;15.40;99.90;;;;;;6120284;23;20018;-96
2023/05/08 14:11:09;;;;;;;26.08;14.38;;;15.30;99.90;;;;;;6140197;23;20036;-96
2023/05/08 14:17:19;;;;;;;21.73;13.85;;;15.40;99.90;;;;;;6139782;23;20021;-96
2023/05/08 14:20:05;;;;;;;25.35;13.98;;;15.40;99.90;;;;;;6081171;23;20462;-96
2023/05/08 14:22:43;;;;;;;25.65;15.13;;;15.40;99.90;;;;;;6113405;23;20049;-96
2023/05/08 14:26:07;;;;;;;;;;;;;;;;;;;;;
2023/05/08 14:29:23;;;;;;;26.80;14.57;;;15.40;99.90;;;;;;6046507;23;20011;-96
2023/05/08 14:32:11;;;;;;;27.10;15.35;;;15.40;99.90;;;;;;6052157;23;20085;-96
2023/05/08 14:35:09;;;;;;;24.35;14.18;;;15.30;99.90;;;;;;6092647;23;20013;-96
2023/05/08 14:38:14;;;;;;;25.83;14.48;;;15.40;99.90;;;;;;6141191;23;20155;-96
2023/05/08 14:41:23;;;;;;;24.80;13.35;;;15.40;99.90;;;;;;6107241;23;20063;-96
2023/05/08 14:43:55;;;;;;;26.08;14.38;;;15.40;99.90;;;;;;6110979;23;20006;-96
2023/05/08 14:46:49;;;;;;;25.45;13.88;;;15.40;99.90;;;;;;6109000;23;20066;-96
2023/05/08 14:49:18;;;;;;;29.65;14.90;;;15.30;99.90;;;;;;6137646;23;20033;-96
2023/05/08 14:51:44;;;;;;;25.25;13.95;;;15.40;99.90;;;;;;6106389;23;20017;-96
2023/05/08 14:54:10;;;;;;;25.23;14.35;;;15.60;99.90;;;;;;6106097;23;20006;-96
2023/05/08 14:57:02;;;;;;;26.02;14.93;;;15.40;99.90;;;;;;6102500;23;20006;-96
2023/05/08 14:59:40;;;;;;;22.90;13.77;;;15.40;99.90;;;;;;6081106;23;20060;-96
2023/05/08 15:02:06;;;;;;;24.38;14.55;;;15.40;99.90;;;;;;6084620;23;20010;-96
2023/05/08 15:05:04;;;;;;;27.08;13.88;;;15.40;99.90;;;;;;6086215;23;20053;-96
2023/05/08 15:08:08;;;;;;;26.27;15.00;;;15.40;99.90;;;;;;6113635;23;20006;-96
2023/05/08 15:10:38;;;;;;;24.05;14.23;;;15.40;99.90;;;;;;6129662;23;20013;-96
2023/05/08 15:13:04;;;;;;;22.10;14.05;;;15.40;99.90;;;;;;6078820;23;20006;-96
2023/05/08 15:15:32;;;;;;;19.65;12.45;;;15.40;99.90;;;;;;6101075;23;20016;-96
2023/05/08 15:18:18;;;;;;;27.42;14.68;;;15.40;99.90;;;;;;6078811;23;20025;-96
2023/05/08 15:21:01;;;;;;;26.98;14.55;;;15.40;99.90;;;;;;6105818;23;20006;-96
2023/05/08 15:23:37;;;;;;;22.48;12.85;;;15.40;99.90;;;;;;6108538;23;20093;-96
2023/05/08 15:26:15;;;;;;;25.55;13.90;;;15.40;99.90;;;;;;6109663;23;20036;-96
2023/05/08 15:28:46;;;;;;;28.30;14.85;;;15.40;99.90;;;;;;6105809;23;20089;-95
2023/05/08 15:31:12;;;;;;;28.58;13.80;;;15.40;99.90;;;;;;6084291;23;20002;-96
2023/05/08 15:33:43;;;;;;;23.10;13.57;;;15.40;99.90;;;;;;6106157;23;20091;-96
2023/05/08 15:36:15;;;;;;;31.40;14.63;;;15.40;99.90;;;;;;6082333;23;20014;-96
2023/05/08 15:38:43;;;;;;;29.40;14.90;;;15.40;99.90;;;;;;6126847;23;20010;-96
2023/05/08 15:41:20;;;;;;;21.63;12.75;;;15.40;99.90;;;;;;6108209;23;20441;-96
2023/05/08 15:43:50;;;;;;;26.40;15.45;;;15.40;99.90;;;;;;6104387;23;20013;-96
2023/05/08 15:46:16;;;;;;;28.70;14.48;;;15.40;99.90;;;;;;6081382;23;20387;-96
2023/05/08 15:48:46;;;;;;;27.98;14.02;;;15.40;99.90;;;;;;6079190;23;20010;-96
2023/05/08 15:51:13;;;;;;;;;;;15.30;99.80;;;;;;6081224;23;20006;-96
2023/05/08 15:53:40;;;;;;;27.15;15.05;;;15.40;99.80;;;;;;6127647;23;19912;-96
2023/05/08 15:56:06;;;;;;;26.50;14.43;;;15.40;99.80;;;;;;6101516;23;20018;-96
2023/05/08 15:58:35;;;;;;;26.95;15.30;;;15.40;99.80;;;;;;6128001;23;20010;-96
2023/05/08 16:06:11;;;;;;;28.35;15.18;;;15.40;99.80;;;;;;6098157;23;20026;-96
2023/05/08 16:08:38;;;;;;;27.38;14.80;;;15.40;99.80;;;;;;6075586;23;20015;-96
2023/05/08 16:11:15;;;;;;;25.88;14.85;;;15.40;99.80;;;;;;6072925;23;20018;-96
2023/05/08 16:13:43;;;;;;;25.05;14.43;;;15.40;99.80;;;;;;6105170;23;19997;-96
2023/05/08 16:16:10;;;;;;;28.67;14.73;;;15.40;99.70;;;;;;6074450;23;20019;-96
2023/05/08 16:18:37;;;;;;;31.13;15.07;;;15.40;99.70;;;;;;6073039;23;20010;-96
2023/05/08 16:21:28;;;;;;;29.85;16.20;;;15.40;99.70;;;;;;6078886;23;20074;-96
2023/05/08 16:23:55;;;;;;;29.55;16.00;;;15.40;99.70;;;;;;6105625;23;20007;-96
2023/05/08 16:26:26;;;;;;;30.45;16.85;;;15.40;99.70;;;;;;6073105;23;20011;-96
2023/05/08 16:31:33;;;;;;;29.58;16.77;;;15.40;99.70;;;;;;6126415;23;20021;-96
2023/05/08 16:44:31;;;;;;;28.17;15.50;;;15.40;99.90;;;;;;6155678;23;20050;-96
2023/05/08 16:46:59;;;;;;;36.90;17.70;;;15.40;99.90;;;;;;6095021;23;19994;-96
2023/05/08 16:54:36;;;;;;;32.75;16.83;;;15.40;99.90;;;;;;6147196;23;20239;-95
2023/05/08 16:57:31;;;;;;;25.33;15.50;;;15.40;99.90;;;;;;6132366;23;20012;-96
2023/05/08 16:59:57;;;;;;;27.90;15.23;;;15.40;99.90;;;;;;6110693;23;20068;-96
2023/05/08 17:02:33;;;;;;;29.38;16.50;;;15.40;99.90;;;;;;6127511;23;20378;-93
2023/05/08 17:04:59;;;;;;;27.35;15.30;;;15.40;99.90;;;;;;6127220;23;20025;-96
2023/05/08 17:07:30;;;;;;;25.38;15.88;;;15.40;99.90;;;;;;6128496;23;20006;-95
2023/05/08 17:09:56;;;;;;;30.25;16.60;;;15.40;99.90;;;;;;6129196;23;20020;-95
2023/05/08 17:12:23;;;;;;;32.58;15.35;;;15.30;99.90;;;;;;6129038;23;20446;-95
2023/05/08 17:14:49;;;;;;;28.75;15.10;;;15.30;99.90;;;;;;6129087;23;20002;-95
2023/05/08 17:17:24;;;;;;;27.20;14.85;;;15.40;99.90;;;;;;6130447;23;20017;-95
2023/05/08 17:19:54;;;;;;;26.25;15.50;;;15.40;99.90;;;;;;6130575;23;20012;-90
2023/05/08 17:22:28;;;;;;;29.60;15.68;;;15.40;99.90;;;;;;6130969;23;20021;-95
2023/05/08 17:24:56;;;;;;;29.75;14.98;;;15.40;99.90;;;;;;6130131;23;20006;-91
2023/05/08 17:27:21;;;;;;;24.10;14.13;;;15.40;99.90;;;;;;6129599;23;20013;-91
2023/05/08 17:29:48;;;;;;;24.77;14.88;;;15.40;99.90;;;;;;6129725;23;20009;-90
2023/05/08 17:33:08;;;;;;;28.02;15.13;;;15.40;99.90;;;;;;6141170;23;20013;-96
2023/05/08 17:35:51;;;;;;;27.80;15.02;;;15.40;99.90;;;;;;6095659;23;20006;-92
2023/05/08 17:38:17;;;;;;;27.92;13.50;;;15.40;99.90;;;;;;6068070;23;20006;-93
2023/05/08 17:40:42;;;;;;;26.63;15.05;;;15.40;99.90;;;;;;6070394;23;20011;-91
2023/05/08 17:43:08;;;;;;;31.67;14.55;;;15.40;99.90;;;;;;6070096;23;20010;-93
2023/05/08 17:45:34;;;;;;;26.83;14.68;;;15.30;99.90;;;;;;6046594;23;20030;-90
2023/05/08 17:48:00;;;;;;;29.35;14.10;;;15.30;99.90;;;;;;6071726;23;20033;-92
2023/05/08 17:50:25;;;;;;;27.45;14.90;;;15.40;99.90;;;;;;6071301;23;20014;-91
2023/05/08 17:52:51;;;;;;;26.83;14.68;;;15.30;99.90;;;;;;6068774;23;20435;-91
2023/05/08 17:55:17;;;;;;;31.58;14.48;;;15.30;99.90;;;;;;6069017;23;20098;-89
2023/05/08 17:57:43;;;;;;;33.53;15.20;;;15.30;99.90;;;;;;6068301;23;20021;-95
2023/05/08 18:00:09;;;;;;;26.23;14.35;;;15.30;99.90;;;;;;6069838;23;20086;-95
2023/05/08 18:02:38;;;;;;;25.27;14.68;;;15.30;99.90;;;;;;6070117;23;20006;-95
2023/05/08 18:05:04;;;;;;;24.45;12.95;;;15.30;99.90;;;;;;6072075;23;20013;-96
2023/05/08 18:07:33;;;;;;;28.85;13.75;;;15.30;99.90;;;;;;6117598;23;20044;-96